Time;durP1;ratioP1;P1;durP2;ratioP2;P2;SDS_P1;SDS_P2;PMS_P1;PMS_P2;Temp;Humidity;BMP_temperature;BMP_pressure;BME280_temperature;BME280_humidity;BME280_pressure;Samples;Min_cycle;Max_cycle;Signal;HPM_P1;HPM_P2
2022/12/07 00:01:39;;;;;;;1.00;0.70;;;19.20;54.90;;;;;;6269061;28;20017;-68
2022/12/07 00:04:39;;;;;;;0.43;0.40;;;19.20;55.10;;;;;;6270451;28;20024;-67
2022/12/07 00:07:40;;;;;;;0.65;0.65;;;19.20;55.10;;;;;;6270396;28;20027;-68
2022/12/07 00:10:41;;;;;;;0.60;0.50;;;19.20;55.00;;;;;;6270962;28;20045;-68
2022/12/07 00:13:42;;;;;;;0.75;0.57;;;19.20;55.10;;;;;;6268964;28;20490;-67
2022/12/07 00:16:44;;;;;;;0.98;0.50;;;19.20;55.00;;;;;;6270228;28;20390;-67
2022/12/07 00:19:44;;;;;;;0.65;0.50;;;19.20;55.10;;;;;;6270278;28;20051;-67
2022/12/07 00:22:45;;;;;;;0.88;0.57;;;19.20;55.10;;;;;;6269788;28;20017;-68
2022/12/07 00:25:47;;;;;;;0.50;0.50;;;19.20;55.10;;;;;;6270035;28;20486;-68
2022/12/07 00:28:50;;;;;;;0.73;0.50;;;19.20;55.10;;;;;;6268836;28;20056;-68
2022/12/07 00:31:51;;;;;;;0.63;0.50;;;19.20;55.10;;;;;;6268638;28;20069;-67
2022/12/07 00:34:52;;;;;;;1.10;0.50;;;19.20;55.10;;;;;;6268405;28;20055;-68
2022/12/07 00:37:52;;;;;;;1.33;0.80;;;19.20;55.10;;;;;;6269711;28;20029;-67
2022/12/07 00:41:04;;;;;;;1.02;0.60;;;19.20;55.10;;;;;;6269591;28;20446;-68
2022/12/07 00:44:05;;;;;;;0.80;0.50;;;19.20;55.10;;;;;;6269812;28;20024;-68
2022/12/07 00:47:05;;;;;;;1.27;0.60;;;19.20;55.10;;;;;;6269177;28;20091;-67
2022/12/07 00:50:06;;;;;;;0.73;0.60;;;19.20;55.10;;;;;;6269325;28;20028;-67
2022/12/07 00:53:07;;;;;;;0.60;0.50;;;19.20;55.10;;;;;;6269499;28;20535;-68
2022/12/07 00:56:13;;;;;;;2.70;0.77;;;19.20;55.10;;;;;;6269133;28;20045;-67
2022/12/07 00:59:14;;;;;;;1.75;0.52;;;19.20;55.10;;;;;;6269189;28;20104;-67
2022/12/07 01:02:15;;;;;;;0.40;0.40;;;19.20;55.10;;;;;;6269250;28;20558;-68
2022/12/07 01:05:16;;;;;;;1.40;0.70;;;19.20;55.10;;;;;;6269184;28;20029;-68
2022/12/07 01:08:17;;;;;;;0.45;0.38;;;19.20;55.00;;;;;;6268959;28;20099;-67
2022/12/07 01:11:20;;;;;;;0.50;0.45;;;19.20;55.10;;;;;;6267843;28;20028;-67
2022/12/07 01:14:21;;;;;;;0.73;0.55;;;19.20;55.10;;;;;;6268597;28;20037;-68
2022/12/07 01:17:22;;;;;;;1.02;0.57;;;19.20;55.10;;;;;;6268964;28;20060;-67
2022/12/07 01:20:22;;;;;;;0.50;0.50;;;19.20;55.10;;;;;;6268547;28;20048;-68
2022/12/07 01:23:23;;;;;;;0.75;0.63;;;19.20;55.10;;;;;;6269072;28;20028;-67
2022/12/07 01:26:25;;;;;;;1.40;0.70;;;19.20;55.10;;;;;;6268672;28;20025;-67
2022/12/07 01:29:26;;;;;;;1.13;0.60;;;19.20;55.10;;;;;;6268609;28;20020;-68
2022/12/07 01:32:27;;;;;;;0.50;0.50;;;19.20;55.10;;;;;;6267342;28;20037;-68
2022/12/07 01:35:28;;;;;;;0.70;0.55;;;19.20;55.10;;;;;;6268411;28;20074;-67
2022/12/07 01:38:29;;;;;;;0.60;0.50;;;19.20;55.10;;;;;;6268310;28;20028;-67
2022/12/07 01:41:33;;;;;;;0.70;0.60;;;19.20;55.10;;;;;;6268246;28;20091;-67
2022/12/07 01:45:12;;;;;;;0.75;0.60;;;19.20;55.10;;;;;;6268384;28;20726;-68
2022/12/07 01:48:17;;;;;;;0.70;0.60;;;19.20;55.10;;;;;;6268239;28;20025;-67
2022/12/07 01:51:18;;;;;;;0.75;0.50;;;19.20;55.10;;;;;;6268708;28;20066;-67
2022/12/07 01:54:20;;;;;;;0.70;0.50;;;19.20;55.10;;;;;;6266791;28;20106;-68
2022/12/07 01:57:21;;;;;;;0.40;0.40;;;19.20;55.10;;;;;;6268343;28;20116;-68
2022/12/07 02:00:22;;;;;;;0.75;0.55;;;19.20;55.10;;;;;;6266488;28;20055;-67
2022/12/07 02:03:32;;;;;;;0.55;0.40;;;19.20;55.10;;;;;;6268630;28;20474;-67
2022/12/07 02:06:34;;;;;;;0.93;0.70;;;19.20;55.10;;;;;;6268300;28;20029;-67
2022/12/07 02:09:35;;;;;;;1.38;0.55;;;19.20;55.10;;;;;;6268020;28;20505;-67
2022/12/07 02:12:36;;;;;;;0.68;0.50;;;19.20;55.10;;;;;;6268059;28;20029;-68
2022/12/07 02:15:45;;;;;;;0.40;0.40;;;19.20;55.10;;;;;;6267942;28;20432;-68
2022/12/07 02:19:13;;;;;;;0.90;0.60;;;19.20;55.10;;;;;;6266554;28;20033;-67
2022/12/07 02:22:26;;;;;;;0.50;0.50;;;19.20;55.10;;;;;;6268259;28;20025;-67
2022/12/07 02:25:48;;;;;;;0.65;0.50;;;19.20;55.10;;;;;;6266165;28;20025;-68
2022/12/07 02:29:01;;;;;;;0.50;0.40;;;19.20;55.10;;;;;;6267976;28;20021;-68
2022/12/07 02:32:23;;;;;;;0.47;0.47;;;19.20;55.10;;;;;;6268016;28;20099;-67
2022/12/07 02:35:46;;;;;;;0.60;0.50;;;19.20;55.10;;;;;;6268057;28;20111;-67
2022/12/07 02:39:08;;;;;;;0.43;0.43;;;19.20;55.10;;;;;;6267442;28;20029;-67
2022/12/07 02:42:19;;;;;;;0.50;0.50;;;19.20;55.10;;;;;;6265867;28;20021;-67
2022/12/07 02:45:22;;;;;;;0.55;0.50;;;19.20;55.10;;;;;;6266344;28;20534;-67
2022/12/07 02:48:24;;;;;;;0.70;0.55;;;19.20;55.10;;;;;;6266197;28;20413;-67
2022/12/07 02:51:29;;;;;;;0.55;0.47;;;19.20;55.10;;;;;;6267850;28;20025;-67
2022/12/07 02:54:29;;;;;;;0.50;0.50;;;19.20;55.10;;;;;;6271211;28;20037;-67
2022/12/07 02:57:36;;;;;;;0.50;0.45;;;19.20;55.10;;;;;;6272137;28;20040;-67
2022/12/07 03:00:52;;;;;;;0.73;0.60;;;19.20;55.10;;;;;;6271863;28;20656;-68
2022/12/07 03:04:13;;;;;;;0.50;0.50;;;19.20;55.10;;;;;;6271656;28;20055;-67
2022/12/07 03:07:38;;;;;;;0.60;0.30;;;19.20;55.00;;;;;;6271775;28;20032;-67
2022/12/07 03:10:38;;;;;;;0.60;0.50;;;19.20;55.10;;;;;;6270364;28;20021;-68
2022/12/07 03:13:42;;;;;;;0.43;0.43;;;19.20;55.10;;;;;;6271728;28;20539;-68
2022/12/07 03:16:57;;;;;;;0.40;0.40;;;19.20;55.10;;;;;;6270676;28;20025;-67
2022/12/07 03:20:01;;;;;;;0.77;0.60;;;19.20;55.10;;;;;;6270200;28;20029;-67
2022/12/07 03:23:05;;;;;;;0.63;0.50;;;19.20;55.10;;;;;;6270039;28;20029;-68
2022/12/07 03:26:10;;;;;;;0.50;0.50;;;19.20;55.10;;;;;;6271683;28;20025;-68
2022/12/07 03:29:20;;;;;;;0.60;0.50;;;19.20;55.10;;;;;;6271138;28;20075;-67
2022/12/07 03:32:30;;;;;;;0.43;0.40;;;19.20;55.10;;;;;;6271194;28;20036;-68
2022/12/07 03:35:34;;;;;;;0.60;0.60;;;19.20;55.00;;;;;;6271521;28;20029;-67
2022/12/07 03:38:44;;;;;;;0.50;0.50;;;19.20;55.10;;;;;;6270899;28;20049;-67
2022/12/07 03:41:45;;;;;;;0.50;0.50;;;19.20;55.10;;;;;;6270915;28;20429;-67
2022/12/07 03:44:47;;;;;;;0.40;0.40;;;19.20;55.10;;;;;;6269446;28;20036;-67
2022/12/07 03:48:31;;;;;;;0.55;0.50;;;19.20;55.10;;;;;;6271176;28;20032;-67
2022/12/07 03:51:41;;;;;;;0.68;0.60;;;19.20;55.10;;;;;;6246850;28;20516;-67
2022/12/07 03:54:51;;;;;;;0.30;0.30;;;19.20;55.10;;;;;;6269509;28;20514;-68
2022/12/07 03:57:58;;;;;;;0.77;0.60;;;19.20;55.10;;;;;;6246326;28;20455;-67
2022/12/07 04:00:59;;;;;;;0.60;0.45;;;19.20;55.10;;;;;;6245735;28;20025;-68
2022/12/07 04:03:59;;;;;;;0.40;0.40;;;19.20;55.10;;;;;;6245551;28;20022;-67
2022/12/07 04:07:00;;;;;;;0.98;0.40;;;19.20;55.10;;;;;;6246133;28;20033;-68
2022/12/07 04:10:01;;;;;;;0.60;0.50;;;19.20;55.10;;;;;;6282000;28;20017;-67
2022/12/07 04:13:02;;;;;;;0.65;0.63;;;19.20;55.10;;;;;;6270342;28;20020;-67
2022/12/07 04:16:02;;;;;;;0.50;0.45;;;19.20;55.10;;;;;;6270063;28;20025;-68
2022/12/07 04:19:03;;;;;;;0.50;0.50;;;19.20;55.10;;;;;;6270191;28;20025;-67
2022/12/07 04:22:05;;;;;;;0.38;0.38;;;19.20;55.10;;;;;;6269441;28;20029;-67
2022/12/07 04:25:06;;;;;;;0.47;0.40;;;19.20;55.10;;;;;;6270526;28;20028;-69
2022/12/07 04:28:07;;;;;;;0.63;0.52;;;19.20;55.10;;;;;;6271198;28;20036;-69
2022/12/07 04:31:07;;;;;;;0.50;0.50;;;19.20;55.10;;;;;;6269596;28;20025;-69
2022/12/07 04:34:09;;;;;;;0.60;0.40;;;19.20;55.10;;;;;;6269264;28;20028;-69
2022/12/07 04:37:09;;;;;;;0.50;0.50;;;19.20;55.10;;;;;;6270735;28;20025;-68
2022/12/07 04:40:11;;;;;;;0.50;0.38;;;19.20;55.10;;;;;;6270560;28;20497;-69
2022/12/07 04:43:11;;;;;;;0.43;0.43;;;19.20;55.10;;;;;;6270684;28;20032;-69
2022/12/07 04:46:12;;;;;;;0.70;0.60;;;19.20;55.10;;;;;;6269341;28;20025;-69
2022/12/07 04:49:14;;;;;;;0.40;0.40;;;19.20;55.10;;;;;;6270653;28;20504;-68
2022/12/07 04:52:14;;;;;;;0.63;0.50;;;19.20;55.10;;;;;;6270388;28;20021;-69
2022/12/07 04:55:15;;;;;;;0.75;0.65;;;19.20;55.10;;;;;;6268754;28;20049;-69
2022/12/07 04:58:16;;;;;;;0.40;0.40;;;19.20;55.10;;;;;;6270563;28;20386;-69
2022/12/07 05:01:18;;;;;;;0.63;0.47;;;19.20;55.10;;;;;;6270062;28;20032;-69
2022/12/07 05:04:19;;;;;;;0.60;0.50;;;19.20;55.10;;;;;;6270048;28;20056;-69
2022/12/07 05:07:20;;;;;;;0.40;0.40;;;19.20;55.10;;;;;;6270129;28;20021;-69
2022/12/07 05:10:21;;;;;;;0.63;0.57;;;19.20;55.10;;;;;;6269962;28;20723;-69
2022/12/07 05:13:22;;;;;;;0.50;0.50;;;19.20;55.10;;;;;;6269756;28;20047;-69
2022/12/07 05:16:22;;;;;;;0.75;0.60;;;19.10;55.00;;;;;;6269599;28;20025;-69
2022/12/07 05:19:23;;;;;;;0.50;0.50;;;19.20;55.10;;;;;;6268427;28;20021;-69
2022/12/07 05:22:27;;;;;;;0.80;0.52;;;19.20;55.10;;;;;;6269600;28;20028;-69
2022/12/07 05:25:28;;;;;;;0.47;0.40;;;19.20;55.00;;;;;;6269596;28;20017;-68
2022/12/07 05:28:29;;;;;;;0.50;0.50;;;19.10;55.00;;;;;;6269837;28;20122;-69
2022/12/07 05:31:30;;;;;;;0.90;0.63;;;19.20;55.00;;;;;;6268524;28;20371;-69
2022/12/07 05:34:30;;;;;;;1.27;0.68;;;19.20;55.00;;;;;;6269499;28;20057;-69
2022/12/07 05:37:31;;;;;;;0.60;0.50;;;19.20;55.00;;;;;;6269292;28;20492;-69
2022/12/07 05:40:32;;;;;;;0.60;0.50;;;19.20;55.00;;;;;;6269469;28;20118;-69
2022/12/07 05:43:33;;;;;;;1.65;0.60;;;19.20;55.00;;;;;;6269282;28;20021;-69
2022/12/07 05:46:35;;;;;;;0.52;0.50;;;19.20;55.00;;;;;;6268215;28;20025;-69
2022/12/07 05:49:35;;;;;;;1.50;0.43;;;19.20;55.00;;;;;;6269456;28;20056;-69
2022/12/07 05:52:36;;;;;;;1.33;0.70;;;19.20;55.00;;;;;;6269481;28;20021;-69
2022/12/07 05:55:37;;;;;;;0.82;0.50;;;19.20;55.00;;;;;;6269087;28;20398;-69
2022/12/07 06:02:05;;;;;;;0.45;0.45;;;19.20;55.00;;;;;;6269277;28;20072;-69
2022/12/07 06:05:06;;;;;;;0.40;0.40;;;19.20;55.00;;;;;;6269004;28;20510;-69
2022/12/07 06:08:07;;;;;;;0.65;0.45;;;19.20;55.00;;;;;;6269036;28;20035;-69
2022/12/07 06:14:27;;;;;;;0.50;0.50;;;19.20;54.90;;;;;;6268518;28;20350;-70
2022/12/07 06:17:28;;;;;;;0.82;0.50;;;19.20;54.90;;;;;;6268814;28;20079;-70
2022/12/07 06:20:28;;;;;;;0.77;0.68;;;19.20;55.00;;;;;;6269201;28;20029;-70
2022/12/07 06:23:29;;;;;;;1.33;0.60;;;19.20;55.00;;;;;;6269057;28;20104;-70
2022/12/07 06:26:30;;;;;;;1.05;0.60;;;19.20;55.00;;;;;;6268726;28;20028;-69
2022/12/07 06:29:31;;;;;;;0.85;0.60;;;19.20;54.90;;;;;;6271584;28;20032;-70
2022/12/07 06:32:33;;;;;;;0.90;0.50;;;19.20;54.90;;;;;;6272379;28;20051;-70
2022/12/07 06:35:34;;;;;;;0.68;0.52;;;19.20;54.90;;;;;;6272379;28;20021;-70
2022/12/07 06:38:34;;;;;;;0.63;0.63;;;19.20;54.90;;;;;;6272330;28;20375;-70
2022/12/07 06:41:39;;;;;;;0.70;0.57;;;19.20;54.90;;;;;;6274453;28;20566;-70
2022/12/07 06:44:40;;;;;;;1.38;0.70;;;19.20;54.90;;;;;;6272716;28;20017;-70
2022/12/07 06:47:40;;;;;;;1.15;0.88;;;19.20;54.90;;;;;;6273357;28;20036;-70
2022/12/07 06:50:44;;;;;;;0.73;0.60;;;19.20;54.90;;;;;;6273450;28;20683;-70
2022/12/07 06:53:45;;;;;;;1.10;0.60;;;19.20;54.90;;;;;;6272118;28;20025;-70
2022/12/07 06:56:45;;;;;;;1.65;0.60;;;19.20;54.80;;;;;;6273399;28;20025;-70
2022/12/07 06:59:46;;;;;;;0.80;0.50;;;19.20;54.80;;;;;;6274078;28;20139;-70
2022/12/07 07:02:47;;;;;;;1.05;0.63;;;19.20;54.80;;;;;;6275061;28;20033;-70
2022/12/07 07:05:48;;;;;;;0.50;0.50;;;19.20;54.80;;;;;;6275384;28;20017;-70
2022/12/07 07:08:49;;;;;;;2.28;0.60;;;19.20;54.80;;;;;;6273828;28;20108;-70
2022/12/07 07:11:50;;;;;;;1.30;0.68;;;19.20;54.80;;;;;;6273646;28;20032;-70
2022/12/07 07:14:50;;;;;;;1.00;0.57;;;19.20;54.80;;;;;;6274665;28;20478;-70
2022/12/07 07:17:51;;;;;;;1.23;0.60;;;19.20;54.80;;;;;;6274928;28;20021;-70
2022/12/07 07:20:52;;;;;;;1.23;0.77;;;19.20;54.80;;;;;;6273439;28;20025;-70
2022/12/07 07:23:53;;;;;;;0.93;0.70;;;19.20;54.80;;;;;;6273619;28;20021;-70
2022/12/07 07:26:54;;;;;;;0.80;0.63;;;19.20;54.80;;;;;;6274801;28;20044;-70
2022/12/07 07:29:54;;;;;;;0.60;0.57;;;19.20;54.80;;;;;;6273716;28;20032;-70
2022/12/07 07:33:02;;;;;;;1.00;0.65;;;19.20;54.80;;;;;;6274437;28;20029;-70
2022/12/07 07:36:03;;;;;;;1.20;0.80;;;19.20;54.80;;;;;;6272992;28;20386;-70
2022/12/07 07:39:04;;;;;;;1.23;0.77;;;19.20;54.80;;;;;;6272895;28;20036;-70
2022/12/07 07:42:07;;;;;;;0.90;0.77;;;19.20;54.80;;;;;;6274299;28;20017;-69
2022/12/07 07:45:08;;;;;;;0.52;0.40;;;19.20;54.80;;;;;;6273131;28;20063;-70
2022/12/07 07:48:09;;;;;;;1.42;0.47;;;19.20;54.80;;;;;;6273959;28;20092;-70
2022/12/07 07:51:10;;;;;;;0.93;0.70;;;19.20;54.80;;;;;;6274519;28;20021;-70
2022/12/07 07:54:10;;;;;;;2.00;0.70;;;19.20;54.80;;;;;;6272420;28;20421;-69
2022/12/07 07:57:11;;;;;;;0.70;0.60;;;19.20;54.80;;;;;;6272662;28;20342;-70
2022/12/07 08:00:14;;;;;;;0.60;0.47;;;19.20;54.80;;;;;;6273819;28;20060;-70
2022/12/07 08:03:15;;;;;;;0.52;0.50;;;19.20;54.80;;;;;;6271967;28;20021;-70
2022/12/07 08:06:16;;;;;;;0.73;0.70;;;19.20;54.80;;;;;;6272273;28;20486;-70
2022/12/07 08:09:18;;;;;;;0.90;0.75;;;19.20;54.80;;;;;;6274103;28;20139;-70
2022/12/07 08:12:19;;;;;;;2.05;1.15;;;19.20;54.80;;;;;;6273549;28;20029;-69
2022/12/07 08:15:20;;;;;;;2.65;0.60;;;19.20;54.80;;;;;;6273437;28;20061;-70
2022/12/07 08:18:20;;;;;;;0.40;0.40;;;19.20;54.80;;;;;;6273197;28;20082;-70
2022/12/07 08:21:21;;;;;;;0.88;0.70;;;19.20;54.80;;;;;;6272868;28;20108;-69
2022/12/07 08:24:22;;;;;;;0.73;0.70;;;19.20;54.80;;;;;;6272936;28;20023;-71
2022/12/07 08:27:26;;;;;;;0.82;0.60;;;19.20;54.80;;;;;;6272936;28;20103;-69
2022/12/07 08:30:29;;;;;;;0.60;0.60;;;19.20;54.80;;;;;;6271253;28;20441;-70
2022/12/07 08:33:30;;;;;;;0.70;0.60;;;19.20;54.80;;;;;;6271935;28;20036;-70
2022/12/07 08:36:30;;;;;;;0.60;0.50;;;19.20;54.80;;;;;;6272428;28;20063;-70
2022/12/07 08:39:31;;;;;;;0.68;0.60;;;19.20;54.80;;;;;;6272942;28;20028;-70
2022/12/07 08:42:37;;;;;;;0.82;0.60;;;19.20;54.80;;;;;;6272059;28;20029;-69
2022/12/07 08:45:40;;;;;;;0.57;0.50;;;19.20;54.80;;;;;;6271577;28;20021;-69
2022/12/07 08:48:46;;;;;;;1.20;0.65;;;19.20;54.80;;;;;;6271211;28;20025;-70
2022/12/07 08:51:47;;;;;;;0.40;0.32;;;19.20;54.80;;;;;;6271827;28;20032;-70
2022/12/07 08:54:48;;;;;;;0.50;0.50;;;19.20;54.80;;;;;;6270786;28;20528;-70
2022/12/07 08:57:50;;;;;;;0.88;0.60;;;19.20;54.80;;;;;;6272403;28;20390;-70
2022/12/07 09:00:50;;;;;;;0.40;0.40;;;19.20;54.80;;;;;;6272215;28;20079;-70
2022/12/07 09:03:51;;;;;;;0.50;0.50;;;19.20;54.80;;;;;;6270593;28;20017;-70
2022/12/07 09:06:53;;;;;;;1.27;0.50;;;19.20;54.80;;;;;;6272177;28;20018;-70
2022/12/07 09:09:55;;;;;;;1.02;0.60;;;19.20;54.80;;;;;;6270732;28;20024;-70
2022/12/07 09:13:00;;;;;;;0.63;0.50;;;19.20;54.70;;;;;;6272120;28;20021;-70
2022/12/07 09:16:01;;;;;;;1.77;0.50;;;19.20;54.70;;;;;;6270393;28;20552;-70
2022/12/07 09:19:01;;;;;;;0.95;0.40;;;19.20;54.70;;;;;;6270664;28;20025;-70
2022/12/07 09:22:04;;;;;;;0.57;0.40;;;19.20;54.70;;;;;;6270148;28;20021;-70
2022/12/07 09:25:05;;;;;;;0.60;0.60;;;19.20;54.70;;;;;;6270172;28;20024;-70
2022/12/07 09:28:06;;;;;;;0.60;0.50;;;19.20;54.70;;;;;;6270956;28;20060;-70
2022/12/07 09:31:07;;;;;;;1.10;0.47;;;19.20;54.70;;;;;;6270472;28;20061;-70
2022/12/07 09:34:08;;;;;;;0.75;0.60;;;19.20;54.70;;;;;;6270032;28;20048;-70
2022/12/07 09:37:09;;;;;;;0.65;0.47;;;19.20;54.70;;;;;;6271592;28;20063;-70
2022/12/07 09:40:10;;;;;;;0.50;0.45;;;19.20;54.70;;;;;;6270092;28;20433;-70
2022/12/07 09:43:28;;;;;;;0.65;0.45;;;19.20;54.70;;;;;;6270293;28;20087;-69
2022/12/07 09:46:36;;;;;;;0.40;0.40;;;19.20;54.60;;;;;;6270050;28;20028;-70
2022/12/07 09:49:36;;;;;;;0.52;0.52;;;19.20;54.60;;;;;;6271170;28;20025;-70
2022/12/07 09:52:37;;;;;;;0.90;0.70;;;19.20;54.60;;;;;;6271243;28;20036;-70
2022/12/07 09:55:40;;;;;;;0.50;0.50;;;19.20;54.60;;;;;;6270838;28;20053;-70
2022/12/07 09:58:42;;;;;;;0.55;0.45;;;19.20;54.60;;;;;;6271452;28;20037;-69
2022/12/07 10:01:44;;;;;;;1.02;0.60;;;19.20;54.60;;;;;;6273438;28;20036;-69
2022/12/07 10:04:45;;;;;;;0.57;0.50;;;19.20;54.70;;;;;;6279587;28;20021;-70
2022/12/07 10:07:46;;;;;;;0.95;0.50;;;19.20;54.60;;;;;;6279208;28;20025;-70
2022/12/07 10:10:55;;;;;;;0.85;0.50;;;19.20;54.60;;;;;;6277944;28;20078;-70
2022/12/07 10:14:12;;;;;;;0.43;0.43;;;19.20;54.60;;;;;;6278941;28;20017;-70
2022/12/07 10:17:29;;;;;;;1.25;0.63;;;19.20;54.60;;;;;;6277409;28;20119;-69
2022/12/07 10:20:30;;;;;;;0.60;0.47;;;19.20;54.60;;;;;;6278865;28;20029;-70
2022/12/07 10:23:30;;;;;;;0.55;0.47;;;19.20;54.60;;;;;;6277749;28;20524;-70
2022/12/07 10:26:50;;;;;;;0.73;0.40;;;19.20;54.60;;;;;;6279010;28;20624;-70
2022/12/07 10:29:52;;;;;;;0.77;0.50;;;19.20;54.60;;;;;;6279113;28;20474;-70
2022/12/07 10:32:53;;;;;;;0.60;0.50;;;19.20;54.60;;;;;;6278725;28;20021;-70
2022/12/07 10:35:54;;;;;;;0.60;0.40;;;19.20;54.60;;;;;;6279234;28;20071;-70
2022/12/07 10:39:17;;;;;;;0.73;0.50;;;19.20;54.60;;;;;;6278649;28;20542;-70
2022/12/07 10:42:22;;;;;;;0.85;0.50;;;19.20;54.50;;;;;;6277204;28;20024;-70
2022/12/07 10:45:24;;;;;;;1.20;0.57;;;19.20;54.60;;;;;;6278914;28;20028;-70
2022/12/07 10:48:35;;;;;;;1.00;0.50;;;19.20;54.50;;;;;;6277370;28;20067;-70
2022/12/07 10:52:06;;;;;;;0.60;0.60;;;19.20;54.60;;;;;;6278753;28;20099;-70
2022/12/07 10:55:26;;;;;;;0.75;0.50;;;19.20;54.60;;;;;;6267039;28;20037;-70
2022/12/07 10:58:39;;;;;;;0.47;0.30;;;19.20;54.50;;;;;;6277502;28;20027;-70
2022/12/07 11:01:51;;;;;;;0.70;0.30;;;19.20;54.60;;;;;;6277106;28;20025;-70
2022/12/07 11:05:02;;;;;;;0.93;0.68;;;19.20;54.60;;;;;;6277507;28;20021;-70
2022/12/07 11:08:06;;;;;;;0.47;0.45;;;19.20;54.60;;;;;;6278795;28;20060;-70
2022/12/07 11:11:07;;;;;;;0.65;0.50;;;19.20;54.60;;;;;;6278343;28;20351;-69
2022/12/07 11:14:34;;;;;;;0.65;0.50;;;19.20;54.60;;;;;;6274035;28;20036;-70
2022/12/07 11:18:04;;;;;;;0.70;0.60;;;19.20;54.60;;;;;;6274388;28;20104;-70
2022/12/07 11:21:11;;;;;;;0.73;0.50;;;19.20;54.60;;;;;;6271277;28;20120;-70
2022/12/07 11:24:17;;;;;;;0.65;0.50;;;19.20;54.60;;;;;;6274298;28;20103;-70
2022/12/07 11:27:55;;;;;;;0.50;0.50;;;19.20;54.60;;;;;;6274377;28;20107;-70
2022/12/07 11:31:02;;;;;;;0.68;0.50;;;19.20;54.60;;;;;;6274387;28;20017;-70
2022/12/07 11:34:09;;;;;;;0.50;0.50;;;19.20;54.60;;;;;;6272854;28;20021;-70
2022/12/07 11:37:15;;;;;;;1.15;0.60;;;19.20;54.60;;;;;;6274370;28;20024;-70
2022/12/07 11:40:27;;;;;;;0.55;0.40;;;19.20;54.60;;;;;;6272421;28;20032;-70
2022/12/07 11:43:34;;;;;;;0.90;0.60;;;19.20;54.60;;;;;;6272597;28;20505;-70
2022/12/07 11:46:44;;;;;;;0.47;0.40;;;19.20;54.50;;;;;;6274040;28;20100;-70
2022/12/07 11:49:58;;;;;;;0.95;0.30;;;19.20;54.50;;;;;;6272935;28;20025;-70
2022/12/07 11:53:09;;;;;;;1.27;0.50;;;19.20;54.50;;;;;;6272782;28;20028;-70
2022/12/07 11:56:15;;;;;;;0.75;0.55;;;19.20;54.50;;;;;;6272536;28;20049;-70
2022/12/07 11:59:19;;;;;;;0.50;0.45;;;19.20;54.50;;;;;;6271860;28;20063;-70
2022/12/07 12:02:53;;;;;;;0.68;0.50;;;19.20;54.50;;;;;;6272410;28;20021;-70
2022/12/07 12:05:55;;;;;;;0.43;0.40;;;19.20;54.50;;;;;;6270985;28;20037;-70
2022/12/07 12:09:05;;;;;;;0.40;0.38;;;19.20;54.40;;;;;;6273314;28;20107;-70
2022/12/07 12:12:30;;;;;;;1.23;0.82;;;19.20;54.40;;;;;;6273604;28;20050;-69
2022/12/07 12:15:37;;;;;;;0.57;0.40;;;19.20;54.50;;;;;;6272167;28;20025;-70
2022/12/07 12:19:11;;;;;;;0.30;0.30;;;19.20;54.50;;;;;;6272864;28;20029;-70
2022/12/07 12:22:20;;;;;;;1.05;0.60;;;19.20;54.40;;;;;;6271590;28;20063;-70
2022/12/07 12:25:42;;;;;;;0.55;0.45;;;19.20;54.80;;;;;;6271921;28;20028;-70
2022/12/07 12:29:06;;;;;;;1.20;0.60;;;19.20;54.40;;;;;;6273200;28;20018;-70
2022/12/07 12:32:22;;;;;;;0.65;0.40;;;19.20;54.50;;;;;;6271683;28;20017;-70
2022/12/07 12:35:26;;;;;;;0.50;0.40;;;19.20;54.50;;;;;;6272725;28;20021;-70
2022/12/07 12:38:33;;;;;;;0.60;0.40;;;19.20;54.50;;;;;;6271652;28;20021;-70
2022/12/07 12:45:21;;;;;;;0.80;0.38;;;19.20;54.50;;;;;;6272544;28;20037;-70
2022/12/07 12:48:35;;;;;;;1.13;0.60;;;19.20;54.40;;;;;;6247854;28;20014;-70
2022/12/07 12:51:39;;;;;;;0.68;0.50;;;19.30;54.50;;;;;;6247859;28;20021;-70
2022/12/07 12:54:59;;;;;;;0.73;0.65;;;19.20;54.50;;;;;;6246906;28;20389;-70
2022/12/07 12:58:18;;;;;;;1.70;0.60;;;19.20;54.50;;;;;;6247674;28;20029;-70
2022/12/07 13:01:35;;;;;;;1.08;0.65;;;19.20;54.50;;;;;;6247587;28;20037;-69
2022/12/07 13:04:54;;;;;;;0.60;0.50;;;19.20;54.50;;;;;;6247837;28;20025;-70
2022/12/07 13:08:19;;;;;;;0.40;0.40;;;19.30;54.60;;;;;;6246085;28;20025;-70
2022/12/07 13:11:33;;;;;;;0.98;0.50;;;19.30;54.60;;;;;;6272940;28;20095;-70
2022/12/07 13:14:58;;;;;;;0.60;0.50;;;19.20;54.50;;;;;;6279367;28;20038;-69
2022/12/07 13:18:01;;;;;;;0.57;0.57;;;19.20;54.50;;;;;;6279077;28;20048;-70
2022/12/07 13:21:07;;;;;;;0.82;0.52;;;19.20;54.40;;;;;;6246664;28;20105;-70
2022/12/07 13:24:12;;;;;;;1.05;0.63;;;19.20;54.40;;;;;;6245967;28;20055;-69
2022/12/07 13:27:13;;;;;;;0.87;0.60;;;19.20;54.40;;;;;;6279084;28;20036;-70
2022/12/07 13:30:20;;;;;;;1.48;0.70;;;19.20;54.40;;;;;;6246812;28;20272;-70
2022/12/07 13:33:20;;;;;;;0.98;0.60;;;19.30;55.20;;;;;;6247195;28;20025;-70
2022/12/07 13:36:35;;;;;;;0.90;0.60;;;19.20;54.40;;;;;;6250690;28;20032;-70
2022/12/07 13:39:45;;;;;;;0.60;0.40;;;19.20;54.50;;;;;;6271900;28;20474;-70
2022/12/07 13:42:46;;;;;;;1.05;0.52;;;19.20;54.40;;;;;;6270683;28;20029;-70
2022/12/07 13:46:00;;;;;;;2.25;0.40;;;19.20;54.50;;;;;;6270187;28;20035;-70
2022/12/07 13:49:01;;;;;;;0.65;0.52;;;19.20;54.50;;;;;;6271541;28;20071;-70
2022/12/07 13:52:17;;;;;;;1.05;0.68;;;19.20;54.40;;;;;;6269879;28;20021;-70
2022/12/07 13:55:18;;;;;;;1.13;0.50;;;19.20;54.50;;;;;;6271022;28;20549;-71
2022/12/07 13:58:19;;;;;;;0.80;0.60;;;19.20;54.50;;;;;;6269945;28;20025;-70
2022/12/07 14:01:20;;;;;;;0.80;0.55;;;19.20;54.50;;;;;;6269445;28;20031;-69
2022/12/07 14:04:23;;;;;;;1.13;0.40;;;19.20;54.50;;;;;;6269778;28;20478;-70
2022/12/07 14:07:26;;;;;;;1.55;0.80;;;19.20;54.50;;;;;;6271046;28;20095;-70
2022/12/07 14:10:34;;;;;;;1.30;0.50;;;19.20;54.50;;;;;;6271035;28;20021;-70
2022/12/07 14:13:40;;;;;;;1.13;0.47;;;19.20;54.50;;;;;;6271080;28;20036;-70
2022/12/07 14:16:41;;;;;;;0.88;0.60;;;19.20;54.50;;;;;;6269776;28;20029;-70
2022/12/07 14:19:45;;;;;;;0.60;0.50;;;19.20;54.50;;;;;;6269688;28;20067;-70
2022/12/07 14:22:55;;;;;;;0.52;0.40;;;19.20;54.50;;;;;;6271099;28;20013;-70
2022/12/07 14:26:11;;;;;;;0.50;0.47;;;19.20;54.50;;;;;;6269604;28;20402;-69
2022/12/07 14:29:25;;;;;;;0.65;0.57;;;19.20;54.50;;;;;;6270984;28;20032;-70
2022/12/07 14:32:28;;;;;;;0.43;0.30;;;19.20;54.50;;;;;;6269941;28;20021;-70
2022/12/07 14:35:31;;;;;;;1.30;0.75;;;19.20;54.50;;;;;;6270742;28;20059;-70
2022/12/07 14:38:31;;;;;;;1.65;0.50;;;19.20;54.50;;;;;;6270821;28;20164;-70
2022/12/07 14:41:50;;;;;;;0.90;0.50;;;19.20;54.50;;;;;;6269519;28;20025;-70
2022/12/07 14:44:51;;;;;;;0.85;0.43;;;19.20;54.50;;;;;;6269440;28;20049;-70
2022/12/07 14:47:51;;;;;;;0.85;0.57;;;19.20;54.50;;;;;;6270804;28;20025;-70
2022/12/07 14:50:53;;;;;;;0.60;0.50;;;19.20;54.40;;;;;;6275223;28;20055;-70
2022/12/07 14:53:54;;;;;;;0.63;0.50;;;19.20;54.40;;;;;;6273892;28;20025;-70
2022/12/07 14:56:54;;;;;;;1.13;0.70;;;19.20;54.40;;;;;;6273978;28;20059;-70
2022/12/07 14:59:55;;;;;;;1.15;0.77;;;19.20;54.40;;;;;;6273933;28;20029;-70
2022/12/07 15:02:56;;;;;;;0.80;0.55;;;19.20;54.50;;;;;;6274949;28;20029;-70
2022/12/07 15:05:57;;;;;;;0.98;0.60;;;19.20;54.40;;;;;;6273637;28;20436;-70
2022/12/07 15:08:58;;;;;;;0.80;0.43;;;19.20;54.40;;;;;;6273571;28;20509;-70
2022/12/07 15:11:59;;;;;;;0.77;0.52;;;19.20;54.40;;;;;;6274827;28;20021;-69
2022/12/07 15:15:01;;;;;;;0.40;0.40;;;19.20;54.50;;;;;;6273627;28;20033;-70
2022/12/07 15:18:02;;;;;;;1.48;0.52;;;19.20;54.40;;;;;;6274649;28;20025;-70
2022/12/07 15:21:02;;;;;;;0.77;0.60;;;19.20;54.40;;;;;;6273233;28;20033;-70
2022/12/07 15:24:03;;;;;;;0.98;0.52;;;19.20;54.50;;;;;;6274839;28;20126;-70
2022/12/07 15:27:04;;;;;;;0.40;0.30;;;19.20;54.40;;;;;;6274226;28;20063;-70
2022/12/07 15:30:05;;;;;;;0.80;0.50;;;19.20;54.50;;;;;;6273190;28;20029;-70
2022/12/07 15:33:06;;;;;;;1.00;0.65;;;19.20;54.50;;;;;;6274346;28;20433;-70
2022/12/07 15:36:07;;;;;;;0.60;0.40;;;19.20;54.40;;;;;;6273287;28;20040;-69
2022/12/07 15:39:09;;;;;;;1.02;0.60;;;19.20;54.40;;;;;;6272001;28;20029;-68
2022/12/07 15:42:09;;;;;;;1.25;0.60;;;19.20;54.40;;;;;;6273302;28;20500;-69
2022/12/07 15:45:11;;;;;;;1.13;0.63;;;19.20;54.50;;;;;;6272420;28;20029;-69
2022/12/07 15:48:11;;;;;;;0.95;0.60;;;19.20;54.50;;;;;;6272387;28;20390;-68
2022/12/07 15:51:12;;;;;;;0.95;0.50;;;19.20;54.50;;;;;;6272328;28;20057;-70
2022/12/07 15:54:21;;;;;;;0.93;0.60;;;19.20;54.50;;;;;;6273120;28;20049;-70
2022/12/07 15:57:22;;;;;;;0.98;0.47;;;19.20;54.50;;;;;;6273416;28;20031;-72
2022/12/07 16:00:23;;;;;;;0.65;0.57;;;19.20;54.50;;;;;;6271265;28;20029;-70
2022/12/07 16:03:24;;;;;;;0.60;0.38;;;19.20;54.50;;;;;;6271791;28;20466;-71
2022/12/07 16:06:25;;;;;;;0.55;0.40;;;19.20;54.50;;;;;;6272648;28;20033;-71
2022/12/07 16:09:26;;;;;;;0.68;0.50;;;19.20;54.50;;;;;;6271689;28;20398;-71
2022/12/07 16:12:27;;;;;;;0.40;0.32;;;19.20;54.50;;;;;;6271058;28;20036;-70
2022/12/07 16:15:27;;;;;;;0.98;0.57;;;19.20;54.50;;;;;;6272464;28;20032;-71